Boston, Massachusetts
Traffic Map
Current Weather Conditions
Boston, Massachusetts
Scattered Clouds
Scattered Clouds
24°
Feels Like: 24°
Wind Chill: 24° Ceiling: Unl
Heat Index: 24° Visibility: 10mi
Dew Point: 14° Wind: 14mph
Humidity: 54% Direction: 110° (ESE)
Pressure: 29.96in Gusts: 0mph
Raw Report DataKBOS 301854Z 11012KT 10SM SCT055 SCT250 24/14 A2996 RMK AO2 SLP145 T02440144
Traffic Incident Summary
Active as of:
Severity:
Category:
InformationThere was an issue retrieving the traffic information for this location. Please try a different location or try again shortly.
Advertisements
Track Severe Weather on mobile